This is the latest recevied weather packets stored in our database for station/object AF1E. If no packets are shown the sender has not sent any weather packets the latest 10 day(s).
| Time | Temp. | Humidity | Pressure | Rain* | Wind** | Luminosity | Snow |
|---|---|---|---|---|---|---|---|
| 1777296316 | 12.22° C | 71% | 1022.1 hPa | 0 mm | - | - | - |
| 1777295716 | 12.22° C | 73% | 1022 hPa | 0 mm | - | - | - |
| 1777293316 | 11.11° C | 75% | 1022 hPa | 0 mm | - | - | - |
| 1777292716 | 11.11° C | 75% | 1021.9 hPa | 0 mm | - | - | - |
| 1777288516 | 10.56° C | 77% | 1021.6 hPa | 0 mm | - | - | - |
| 1777284938 | 10° C | 78% | 1020.9 hPa | 0 mm | - | - | - |
| 1777278318 | 10.56° C | 76% | 1019.9 hPa | 0 mm | - | - | - |
| 1777273517 | 11.11° C | 75% | 1019.5 hPa | 0 mm | - | - | - |
| 1777262717 | 13.33° C | 79% | 1018.4 hPa | 0 mm | - | - | - |
| 1777262117 | 13.33° C | 78% | 1018.3 hPa | 0 mm | - | - | - |
| 1777258517 | 15° C | 73% | 1017.7 hPa | 0 mm | - | - | - |
| 1777256717 | 15.56° C | 72% | 1017.5 hPa | 0 mm | - | - | - |
| 1777254917 | 15.56° C | 73% | 1017 hPa | 0 mm | - | - | - |
| 1777251317 | 16.67° C | 72% | 1016 hPa | 0 mm | - | - | - |
| 1777250717 | 16.67° C | 72% | 1015.8 hPa | 0 mm | - | - | - |
| 1777249517 | 17.22° C | 72% | 1015.5 hPa | 0 mm | - | - | - |
| 1777248917 | 17.22° C | 70% | 1015.3 hPa | 0 mm | - | - | - |
| 1777245316 | 18.33° C | 70% | 1014.3 hPa | 0 mm | - | - | - |
| 1777244717 | 18.33° C | 69% | 1014.2 hPa | 0 mm | - | - | - |
| 1777236917 | 21.67° C | 63% | 1012.6 hPa | 0 mm | - | - | - |
| 1777232736 | 23.33° C | 57% | 1012.3 hPa | 0 mm | - | - | - |
| 1777229136 | 23.33° C | 61% | 1012.6 hPa | 0 mm | - | - | - |
| 1777223716 | 21.67° C | 71% | 1013 hPa | 0 mm | - | - | - |
| 1777219516 | 20.56° C | 76% | 1013 hPa | 0 mm | - | - | - |
| 1777217116 | 18.89° C | 81% | 1013 hPa | 0 mm | - | - | - |
* Rain latest hour (hover to see other rain measurements)
** Current wind speed in m/s (hover to see current wind gust speed)